createdAt,value
2018-07-25T00:00:19.683Z,23.75
2018-07-25T00:02:48.552Z,23.70
2018-07-25T00:05:17.257Z,23.61
2018-07-25T00:07:45.946Z,23.53
2018-07-25T00:10:14.579Z,23.56
2018-07-25T00:12:43.281Z,23.52
2018-07-25T00:15:11.913Z,23.42
2018-07-25T00:17:40.586Z,23.45
2018-07-25T00:20:09.402Z,23.40
2018-07-25T00:22:38.140Z,23.29
2018-07-25T00:25:06.850Z,23.17
2018-07-25T00:27:36.163Z,23.05
2018-07-25T00:30:05.409Z,23.01
2018-07-25T00:32:34.370Z,22.98
2018-07-25T00:35:03.031Z,23.00
2018-07-25T00:37:31.645Z,23.00
2018-07-25T00:40:00.705Z,22.88
2018-07-25T00:42:29.364Z,22.87
2018-07-25T00:44:58.085Z,22.79
2018-07-25T00:47:27.139Z,22.81
2018-07-25T00:49:56.083Z,22.72
2018-07-25T00:52:25.640Z,22.74
2018-07-25T00:54:54.280Z,22.74
2018-07-25T00:57:23.911Z,22.64
2018-07-25T00:59:52.544Z,22.56
2018-07-25T01:02:21.267Z,22.50
2018-07-25T01:04:50.840Z,22.54
2018-07-25T01:07:19.522Z,22.57
2018-07-25T01:09:48.530Z,22.49
2018-07-25T01:12:17.243Z,22.54
2018-07-25T01:14:45.857Z,22.52
2018-07-25T01:17:14.469Z,22.47
2018-07-25T01:19:43.336Z,22.51
2018-07-25T01:22:12.265Z,22.53
2018-07-25T01:24:40.959Z,22.52
2018-07-25T01:27:09.639Z,22.51
2018-07-25T01:29:39.313Z,22.37
2018-07-25T01:32:08.562Z,22.39
2018-07-25T01:34:38.195Z,22.40
2018-07-25T01:37:07.150Z,22.33
2018-07-25T01:39:36.427Z,22.26
2018-07-25T01:42:05.016Z,22.29
2018-07-25T01:44:33.648Z,22.23
2018-07-25T01:47:02.297Z,22.19
2018-07-25T01:49:31.020Z,22.20
2018-07-25T01:52:00.008Z,22.13
2018-07-25T01:54:28.751Z,22.15
2018-07-25T01:56:57.328Z,22.20
2018-07-25T01:59:28.298Z,22.16
2018-07-25T02:01:58.583Z,22.12
2018-07-25T02:04:27.739Z,22.11
2018-07-25T02:06:56.365Z,22.04
2018-07-25T02:09:25.083Z,21.98
2018-07-25T02:11:54.533Z,21.84
2018-07-25T02:14:23.630Z,21.87
2018-07-25T02:16:52.242Z,21.90
2018-07-25T02:19:21.023Z,21.85
2018-07-25T02:21:49.625Z,21.76
2018-07-25T02:24:18.270Z,21.62
2018-07-25T02:26:47.389Z,21.53
2018-07-25T02:29:16.053Z,21.57
2018-07-25T02:31:44.648Z,21.53
2018-07-25T02:34:18.416Z,21.49
2018-07-25T02:36:47.035Z,21.50
2018-07-25T02:39:15.757Z,21.48
2018-07-25T02:41:45.160Z,21.48
2018-07-25T02:44:14.130Z,21.53
2018-07-25T02:46:42.727Z,21.47
2018-07-25T02:49:11.556Z,21.55
2018-07-25T02:51:40.162Z,21.54
2018-07-25T02:54:09.319Z,21.49
2018-07-25T02:56:37.916Z,21.52
2018-07-25T02:59:06.762Z,21.46
2018-07-25T03:01:35.385Z,21.40
2018-07-25T03:04:04.056Z,21.35
2018-07-25T03:06:32.702Z,21.32
2018-07-25T03:09:01.492Z,21.30
2018-07-25T03:11:30.149Z,21.28
2018-07-25T03:13:58.770Z,21.20
2018-07-25T03:16:27.640Z,21.20
2018-07-25T03:18:56.211Z,21.22
2018-07-25T03:21:24.854Z,21.18
2018-07-25T03:23:53.567Z,21.04
2018-07-25T03:26:22.185Z,20.90
2018-07-25T03:28:51.502Z,20.72
2018-07-25T03:31:20.304Z,20.51
2018-07-25T03:33:48.819Z,20.35
2018-07-25T03:36:17.426Z,20.26
2018-07-25T03:38:46.718Z,20.21
2018-07-25T03:41:15.365Z,20.09
2018-07-25T03:43:44.752Z,20.18
2018-07-25T03:46:13.409Z,20.26
2018-07-25T03:48:42.110Z,20.19
2018-07-25T03:51:10.740Z,20.19
2018-07-25T03:53:39.373Z,20.16
2018-07-25T03:56:08.008Z,20.16
2018-07-25T03:58:36.635Z,20.09
2018-07-25T04:01:05.294Z,20.11
2018-07-25T04:03:33.862Z,20.20
2018-07-25T04:06:03.241Z,20.23
2018-07-25T04:08:31.841Z,20.27
2018-07-25T04:11:00.502Z,20.31
2018-07-25T04:13:29.861Z,20.31
2018-07-25T04:15:58.541Z,20.28
2018-07-25T04:18:27.241Z,20.22
2018-07-25T04:20:55.845Z,20.28
2018-07-25T04:23:24.601Z,20.31
2018-07-25T04:25:53.283Z,20.26
2018-07-25T04:28:21.856Z,20.28
2018-07-25T04:30:50.527Z,20.34
2018-07-25T04:33:21.542Z,20.39
2018-07-25T04:35:50.227Z,20.41
2018-07-25T04:38:18.810Z,20.39
2018-07-25T04:40:47.540Z,20.49
2018-07-25T04:43:16.164Z,20.54
2018-07-25T04:45:44.784Z,20.62
2018-07-25T04:48:13.367Z,20.63
2018-07-25T04:50:41.981Z,20.71
2018-07-25T04:53:11.347Z,20.75
2018-07-25T04:55:39.980Z,20.77
2018-07-25T04:58:08.656Z,20.85
2018-07-25T05:00:37.275Z,20.92
2018-07-25T05:03:05.914Z,20.90
2018-07-25T05:05:35.313Z,21.00
2018-07-25T05:08:03.984Z,21.12
2018-07-25T05:10:32.589Z,21.09
2018-07-25T05:13:01.341Z,21.13
2018-07-25T05:15:30.282Z,21.20
2018-07-25T05:17:58.974Z,21.28
2018-07-25T05:20:28.254Z,21.35
2018-07-25T05:22:57.200Z,21.44
2018-07-25T05:25:25.815Z,21.46
2018-07-25T05:27:54.433Z,21.54
2018-07-25T05:30:23.047Z,21.58
2018-07-25T05:32:52.569Z,21.54
2018-07-25T05:35:21.226Z,21.57
2018-07-25T05:37:49.866Z,21.53
2018-07-25T05:40:18.636Z,21.60
2018-07-25T05:42:47.484Z,21.64
2018-07-25T05:45:16.816Z,21.74
2018-07-25T05:47:45.516Z,21.85
2018-07-25T05:50:14.165Z,21.89
2018-07-25T05:52:43.467Z,22.02
2018-07-25T05:55:12.028Z,22.14
2018-07-25T05:57:40.658Z,22.22
2018-07-25T06:00:09.388Z,22.34
2018-07-25T06:02:38.072Z,22.47
2018-07-25T06:05:06.732Z,22.53
2018-07-25T06:07:35.463Z,22.60
2018-07-25T06:10:04.546Z,22.69
2018-07-25T06:12:33.159Z,22.79
2018-07-25T06:15:01.794Z,22.86
2018-07-25T06:17:30.414Z,22.98
2018-07-25T06:19:59.032Z,23.11
2018-07-25T06:22:27.617Z,23.19
2018-07-25T06:24:56.396Z,23.23
2018-07-25T06:27:25.135Z,23.35
2018-07-25T06:29:53.746Z,23.50
2018-07-25T06:32:22.631Z,23.65
2018-07-25T06:34:51.363Z,23.76
2018-07-25T06:37:20.135Z,23.93
2018-07-25T06:39:48.824Z,24.01
2018-07-25T06:42:17.520Z,24.12
2018-07-25T06:44:46.128Z,24.23
2018-07-25T06:47:14.825Z,24.27
2018-07-25T06:49:43.623Z,24.37
2018-07-25T06:52:12.292Z,24.50
2018-07-25T06:54:40.985Z,24.55
2018-07-25T06:57:10.289Z,24.58
2018-07-25T06:59:38.875Z,24.74
2018-07-25T07:02:07.628Z,24.81
2018-07-25T07:04:36.570Z,24.86
2018-07-25T07:07:05.386Z,24.91
2018-07-25T07:09:34.010Z,24.94
2018-07-25T07:12:03.327Z,24.75
2018-07-25T07:14:31.940Z,24.87
2018-07-25T07:17:00.564Z,24.99
2018-07-25T07:19:29.206Z,25.05
2018-07-25T07:21:58.713Z,25.11
2018-07-25T07:24:27.370Z,25.12
2018-07-25T07:26:56.054Z,25.20
2018-07-25T07:29:24.732Z,25.37
2018-07-25T07:31:53.534Z,25.49
2018-07-25T07:34:22.218Z,25.68
2018-07-25T07:36:51.085Z,25.75
2018-07-25T07:39:19.737Z,25.92
2018-07-25T07:41:48.438Z,26.11
2018-07-25T07:44:17.962Z,26.30
2018-07-25T07:46:46.590Z,26.43
2018-07-25T07:49:15.340Z,26.59
2018-07-25T07:51:43.952Z,26.65
2018-07-25T07:54:12.752Z,26.60
2018-07-25T07:56:41.398Z,26.66
2018-07-25T07:59:10.666Z,26.68
2018-07-25T08:01:39.838Z,26.87
2018-07-25T08:04:09.110Z,27.04
2018-07-25T08:06:37.745Z,27.21
2018-07-25T08:09:09.277Z,27.34
2018-07-25T08:11:37.877Z,27.44
2018-07-25T08:14:06.611Z,27.55
2018-07-25T08:16:35.245Z,27.65
2018-07-25T08:19:03.997Z,27.78
2018-07-25T08:21:32.821Z,27.91
2018-07-25T08:24:01.485Z,27.85
2018-07-25T08:26:30.141Z,27.95
2018-07-25T08:28:58.731Z,27.95
2018-07-25T08:31:28.217Z,28.08
2018-07-25T08:33:56.851Z,28.20
2018-07-25T08:36:25.498Z,28.27
2018-07-25T08:38:54.082Z,28.34
2018-07-25T08:41:22.878Z,28.52
2018-07-25T08:43:51.440Z,28.66
2018-07-25T08:46:20.122Z,28.73
2018-07-25T08:48:49.724Z,28.80
2018-07-25T08:51:18.529Z,28.88
2018-07-25T08:53:47.229Z,29.00
2018-07-25T08:56:16.751Z,29.11
2018-07-25T08:58:45.390Z,29.20
2018-07-25T09:01:14.040Z,29.29
2018-07-25T09:03:42.666Z,29.40
2018-07-25T09:06:11.331Z,29.47
2018-07-25T09:08:39.947Z,29.46
2018-07-25T09:11:08.759Z,29.46
2018-07-25T09:13:37.559Z,29.55
2018-07-25T09:16:06.193Z,29.63
2018-07-25T09:18:35.539Z,29.70
2018-07-25T09:21:04.259Z,29.79
2018-07-25T09:23:32.900Z,29.94
2018-07-25T09:26:01.614Z,30.03
2018-07-25T09:28:30.227Z,30.11
2018-07-25T09:30:58.862Z,30.21
2018-07-25T09:33:27.650Z,30.30
2018-07-25T09:35:58.099Z,30.33
2018-07-25T09:38:26.820Z,30.23
2018-07-25T09:40:55.511Z,30.34
2018-07-25T09:43:24.221Z,30.45
2018-07-25T09:45:52.905Z,30.59
2018-07-25T09:48:21.625Z,30.66
2018-07-25T09:50:50.305Z,30.64
2018-07-25T09:53:18.984Z,30.71
2018-07-25T09:55:48.002Z,30.77
2018-07-25T09:58:16.924Z,30.75
2018-07-25T10:00:47.554Z,30.81
2018-07-25T10:03:17.194Z,30.96
2018-07-25T10:05:46.096Z,31.08
2018-07-25T10:08:15.285Z,31.11
2018-07-25T10:10:44.579Z,31.25
2018-07-25T10:13:13.320Z,31.34
2018-07-25T10:15:41.954Z,31.41
2018-07-25T10:18:10.915Z,31.49
2018-07-25T10:20:39.645Z,31.60
2018-07-25T10:23:08.539Z,31.55
2018-07-25T10:25:37.166Z,31.69
2018-07-25T10:28:06.240Z,31.80
2018-07-25T10:30:34.912Z,31.92
2018-07-25T10:33:03.748Z,31.94
2018-07-25T10:35:32.271Z,31.95
2018-07-25T10:38:00.934Z,31.88
2018-07-25T10:40:29.544Z,31.95
2018-07-25T10:42:58.845Z,31.95
2018-07-25T10:45:27.560Z,32.07
2018-07-25T10:47:56.261Z,32.16
2018-07-25T10:50:25.628Z,32.25
2018-07-25T10:52:54.301Z,32.29
2018-07-25T10:55:22.883Z,32.36
2018-07-25T10:57:51.535Z,32.42
2018-07-25T11:00:21.076Z,32.37
2018-07-25T11:02:49.695Z,32.42
2018-07-25T11:05:18.484Z,32.60
2018-07-25T11:07:47.442Z,32.62
2018-07-25T11:10:16.181Z,32.65
2018-07-25T11:12:44.810Z,32.80
2018-07-25T11:15:13.571Z,32.84
2018-07-25T11:17:42.345Z,32.83
2018-07-25T11:20:11.293Z,32.87
2018-07-25T11:22:39.961Z,32.87
2018-07-25T11:25:08.667Z,32.93
2018-07-25T11:27:38.180Z,32.99
2018-07-25T11:30:06.973Z,32.98
2018-07-25T11:32:35.737Z,32.90
2018-07-25T11:35:04.316Z,33.05
2018-07-25T11:37:33.197Z,33.15
2018-07-25T11:40:01.827Z,33.20
2018-07-25T11:42:30.529Z,33.35
2018-07-25T11:45:05.943Z,33.38
2018-07-25T11:47:34.556Z,33.34
2018-07-25T11:50:03.256Z,33.51
2018-07-25T11:52:31.894Z,33.49
2018-07-25T11:55:00.972Z,33.42
2018-07-25T11:57:29.619Z,33.56
2018-07-25T11:59:58.253Z,33.52
2018-07-25T12:02:26.867Z,33.45
2018-07-25T12:04:55.499Z,33.56
2018-07-25T12:07:24.132Z,33.62
2018-07-25T12:09:52.945Z,33.76
2018-07-25T12:12:21.538Z,33.87
2018-07-25T12:14:50.189Z,33.73
2018-07-25T12:17:19.094Z,33.70
2018-07-25T12:19:47.739Z,33.75
2018-07-25T12:22:16.445Z,33.78
2018-07-25T12:24:45.091Z,33.67
2018-07-25T12:27:13.745Z,33.72
2018-07-25T12:29:43.124Z,33.86
2018-07-25T12:32:12.593Z,34.07
2018-07-25T12:34:41.270Z,34.16
2018-07-25T12:37:10.540Z,34.19
2018-07-25T12:39:40.319Z,34.29
2018-07-25T12:42:09.800Z,34.32
2018-07-25T12:44:38.416Z,34.36
2018-07-25T12:47:07.139Z,34.50
2018-07-25T12:49:36.120Z,35.10
2018-07-25T12:52:04.765Z,36.12
2018-07-25T12:54:33.427Z,37.50
2018-07-25T12:57:02.036Z,39.08
2018-07-25T12:59:30.733Z,40.69
2018-07-25T13:01:59.494Z,40.79
2018-07-25T13:04:28.798Z,41.17
2018-07-25T13:06:57.557Z,41.92
2018-07-25T13:09:26.317Z,42.41
2018-07-25T13:11:54.939Z,41.09
2018-07-25T13:14:23.578Z,39.84
2018-07-25T13:16:52.431Z,39.77
2018-07-25T13:19:21.034Z,40.34
2018-07-25T13:21:49.827Z,41.70
2018-07-25T13:24:18.514Z,42.48
2018-07-25T13:26:47.616Z,42.90
2018-07-25T13:29:16.313Z,42.16
2018-07-25T13:31:44.999Z,42.49
2018-07-25T13:34:13.699Z,42.39
2018-07-25T13:36:43.285Z,42.33
2018-07-25T13:39:11.895Z,42.76
2018-07-25T13:41:40.728Z,43.01
2018-07-25T13:44:09.406Z,43.62
2018-07-25T13:46:38.067Z,43.41
2018-07-25T13:49:06.971Z,43.87
2018-07-25T13:51:35.822Z,43.90
2018-07-25T13:54:04.562Z,43.72
2018-07-25T13:56:33.270Z,43.53
2018-07-25T13:59:01.942Z,43.43
2018-07-25T14:01:30.621Z,43.06
2018-07-25T14:03:59.975Z,42.74
2018-07-25T14:06:28.652Z,43.02
2018-07-25T14:08:57.318Z,42.81
2018-07-25T14:11:26.711Z,42.60
2018-07-25T14:13:55.317Z,40.84
2018-07-25T14:16:23.983Z,39.75
2018-07-25T14:18:52.712Z,39.84
2018-07-25T14:21:22.169Z,39.48
2018-07-25T14:23:50.928Z,38.64
2018-07-25T14:26:19.435Z,37.93
2018-07-25T14:28:48.851Z,38.13
2018-07-25T14:31:17.495Z,38.12
2018-07-25T14:33:46.380Z,37.79
2018-07-25T14:36:15.241Z,37.72
2018-07-25T14:38:43.920Z,37.41
2018-07-25T14:41:12.633Z,37.39
2018-07-25T14:43:41.319Z,37.15
2018-07-25T14:46:10.697Z,36.80
2018-07-25T14:48:39.484Z,36.64
2018-07-25T14:51:08.174Z,36.60
2018-07-25T14:53:36.759Z,36.54
2018-07-25T14:56:05.739Z,36.57
2018-07-25T14:58:34.416Z,36.87
2018-07-25T15:01:03.010Z,37.16
2018-07-25T15:03:31.682Z,37.35
2018-07-25T15:06:00.309Z,37.54
2018-07-25T15:08:28.982Z,37.64
2018-07-25T15:10:58.374Z,37.82
2018-07-25T15:13:27.028Z,37.68
2018-07-25T15:15:55.732Z,37.58
2018-07-25T15:18:24.376Z,37.81
2018-07-25T15:20:53.066Z,37.64
2018-07-25T15:23:32.936Z,37.60
2018-07-25T15:26:01.609Z,37.12
2018-07-25T15:28:30.234Z,36.63
2018-07-25T15:30:58.916Z,36.74
2018-07-25T15:33:27.833Z,36.68
2018-07-25T15:35:56.549Z,36.43
2018-07-25T15:38:25.199Z,36.15
2018-07-25T15:40:53.868Z,36.01
2018-07-25T15:43:23.245Z,35.82
2018-07-25T15:45:52.887Z,35.75
2018-07-25T15:48:22.891Z,35.55
2018-07-25T15:50:51.774Z,35.34
2018-07-25T15:53:21.419Z,35.40
2018-07-25T15:55:51.498Z,35.47
2018-07-25T15:58:21.274Z,34.93
2018-07-25T16:00:50.361Z,34.84
2018-07-25T16:03:19.024Z,35.06
2018-07-25T16:05:47.706Z,35.07
2018-07-25T16:08:16.399Z,34.96
2018-07-25T16:10:45.261Z,34.86
2018-07-25T16:13:15.313Z,34.88
2018-07-25T16:15:45.188Z,34.75
2018-07-25T16:18:13.991Z,34.76
2018-07-25T16:20:42.774Z,34.78
2018-07-25T16:23:11.590Z,34.61
2018-07-25T16:25:40.478Z,34.72
2018-07-25T16:28:11.366Z,34.61
2018-07-25T16:30:40.114Z,34.71
2018-07-25T16:33:09.185Z,34.73
2018-07-25T16:35:38.813Z,34.60
2018-07-25T16:38:08.389Z,34.67
2018-07-25T16:40:38.467Z,34.56
2018-07-25T16:43:07.980Z,34.60
2018-07-25T16:45:37.253Z,34.65
2018-07-25T16:48:06.203Z,34.71
2018-07-25T16:50:35.062Z,34.68
2018-07-25T16:53:04.208Z,34.64
2018-07-25T16:55:34.923Z,34.55
2018-07-25T16:58:03.601Z,34.30
2018-07-25T17:00:33.302Z,34.03
2018-07-25T17:03:06.206Z,33.58
2018-07-25T17:05:35.553Z,33.42
2018-07-25T17:08:05.830Z,33.25
2018-07-25T17:10:35.458Z,33.09
2018-07-25T17:13:04.845Z,32.84
2018-07-25T17:15:34.451Z,32.88
2018-07-25T17:18:04.379Z,32.88
2018-07-25T17:20:33.415Z,32.96
2018-07-25T17:23:02.098Z,32.99
2018-07-25T17:25:30.827Z,32.86
2018-07-25T17:27:59.614Z,32.68
2018-07-25T17:30:28.300Z,32.52
2018-07-25T17:32:56.996Z,32.60
2018-07-25T17:35:25.731Z,32.55
2018-07-25T17:37:54.555Z,32.64
2018-07-25T17:40:23.245Z,32.56
2018-07-25T17:42:51.955Z,32.59
2018-07-25T17:45:21.146Z,32.61
2018-07-25T17:47:50.763Z,32.54
2018-07-25T17:50:19.549Z,32.51
2018-07-25T17:52:48.451Z,32.41
2018-07-25T17:55:18.246Z,32.23
2018-07-25T17:57:47.019Z,32.04
2018-07-25T18:00:16.102Z,31.83
2018-07-25T18:02:45.657Z,31.84
2018-07-25T18:05:15.365Z,31.84
2018-07-25T18:07:44.256Z,31.74
2018-07-25T18:10:13.624Z,31.62
2018-07-25T18:12:42.713Z,31.57
2018-07-25T18:15:11.593Z,31.63
2018-07-25T18:17:40.384Z,31.54
2018-07-25T18:20:09.272Z,31.54
2018-07-25T18:22:38.378Z,31.42
2018-07-25T18:25:08.232Z,31.40
2018-07-25T18:27:37.228Z,31.37
2018-07-25T18:30:06.993Z,31.37
2018-07-25T18:32:36.615Z,31.52
2018-07-25T18:35:06.373Z,31.56
2018-07-25T18:37:35.839Z,31.53
2018-07-25T18:40:05.580Z,31.31
2018-07-25T18:42:35.936Z,31.29
2018-07-25T18:45:08.274Z,31.29
2018-07-25T18:47:38.296Z,31.29
2018-07-25T18:50:08.951Z,31.37
2018-07-25T18:52:38.538Z,31.40
2018-07-25T18:55:08.553Z,31.38
2018-07-25T18:57:38.132Z,31.38
2018-07-25T19:00:07.507Z,31.37
2018-07-25T19:02:37.469Z,31.30
2018-07-25T19:05:06.231Z,31.27
2018-07-25T19:07:36.341Z,31.21
2018-07-25T19:10:07.169Z,30.87
2018-07-25T19:12:35.994Z,30.74
2018-07-25T19:15:11.140Z,30.79
2018-07-25T19:17:41.117Z,30.58
2018-07-25T19:20:12.250Z,30.64
2018-07-25T19:22:42.235Z,30.74
2018-07-25T19:25:11.720Z,30.75
2018-07-25T19:27:41.226Z,30.66
2018-07-25T19:30:11.639Z,30.68
2018-07-25T19:32:40.976Z,30.66
2018-07-25T19:35:10.646Z,30.61
2018-07-25T19:37:39.817Z,30.39
2018-07-25T19:40:09.611Z,30.03
2018-07-25T19:42:39.093Z,29.70
2018-07-25T19:45:08.619Z,29.18
2018-07-25T19:47:38.060Z,29.47
2018-07-25T19:50:08.629Z,29.67
2018-07-25T19:52:37.650Z,29.76
2018-07-25T19:55:07.321Z,29.83
2018-07-25T19:57:36.517Z,29.80
2018-07-25T20:00:06.284Z,29.80
2018-07-25T20:02:35.917Z,29.75
2018-07-25T20:05:04.965Z,29.77
2018-07-25T20:07:34.345Z,29.78
2018-07-25T20:10:03.340Z,29.78
2018-07-25T20:12:32.108Z,29.70
2018-07-25T20:15:06.335Z,29.57
2018-07-25T20:17:35.412Z,29.62
2018-07-25T20:20:05.472Z,29.54
2018-07-25T20:24:34.614Z,28.92
2018-07-25T20:27:03.395Z,28.76
2018-07-25T20:29:32.191Z,28.65
2018-07-25T20:32:01.154Z,28.67
2018-07-25T20:34:30.279Z,28.63
2018-07-25T20:36:59.759Z,28.61
2018-07-25T20:39:29.208Z,28.61
2018-07-25T20:41:58.702Z,28.44
2018-07-25T20:44:27.345Z,28.31
2018-07-25T20:46:56.019Z,28.20
2018-07-25T20:49:25.505Z,28.12
2018-07-25T20:51:55.159Z,28.10
2018-07-25T20:54:24.255Z,28.13
2018-07-25T20:56:53.237Z,28.08
2018-07-25T20:59:22.434Z,28.05
2018-07-25T21:01:51.764Z,28.06
2018-07-25T21:04:20.881Z,28.06
2018-07-25T21:06:49.874Z,28.11
2018-07-25T21:09:18.690Z,28.15
2018-07-25T21:11:50.341Z,28.10
2018-07-25T21:14:19.702Z,28.04
2018-07-25T21:16:48.380Z,28.06
2018-07-25T21:19:17.733Z,28.09
2018-07-25T21:21:47.548Z,27.97
2018-07-25T21:24:16.183Z,28.08
2018-07-25T21:26:45.541Z,28.10
2018-07-25T21:29:15.682Z,28.11
2018-07-25T21:31:44.543Z,28.09
2018-07-25T21:34:13.217Z,27.96
2018-07-25T21:36:42.210Z,27.88
2018-07-25T21:39:12.828Z,27.73
2018-07-25T21:41:41.718Z,27.62
2018-07-25T21:44:10.406Z,27.49
2018-07-25T21:46:39.471Z,27.40
2018-07-25T21:49:08.323Z,27.37
2018-07-25T21:51:36.972Z,27.41
2018-07-25T21:54:06.159Z,27.41
2018-07-25T21:56:35.138Z,27.41
2018-07-25T21:59:03.848Z,27.41
2018-07-25T22:01:32.732Z,27.42
2018-07-25T22:04:01.404Z,27.32
2018-07-25T22:06:30.125Z,27.27
2018-07-25T22:08:58.904Z,27.13
2018-07-25T22:11:27.497Z,27.00
2018-07-25T22:13:57.080Z,26.94
2018-07-25T22:16:27.584Z,26.94
2018-07-25T22:18:56.305Z,26.99
2018-07-25T22:21:24.919Z,26.89
2018-07-25T22:23:53.683Z,26.78
2018-07-25T22:26:22.354Z,26.67
2018-07-25T22:28:51.119Z,26.61
2018-07-25T22:31:19.784Z,26.57
2018-07-25T22:33:48.453Z,26.45
2018-07-25T22:36:17.875Z,26.41
2018-07-25T22:38:46.530Z,26.35
2018-07-25T22:41:15.196Z,26.29
2018-07-25T22:43:43.806Z,26.19
2018-07-25T22:46:12.498Z,26.18
2018-07-25T22:48:41.537Z,26.05
2018-07-25T22:51:10.371Z,26.03
2018-07-25T22:53:40.096Z,26.02
2018-07-25T22:56:08.757Z,25.88
2018-07-25T22:58:37.396Z,25.73
2018-07-25T23:01:06.165Z,25.70
2018-07-25T23:03:34.871Z,25.56
2018-07-25T23:06:03.496Z,25.57
2018-07-25T23:08:32.285Z,25.46
2018-07-25T23:11:04.569Z,25.41
2018-07-25T23:13:33.273Z,25.37
2018-07-25T23:16:01.908Z,25.31
2018-07-25T23:18:30.537Z,25.24
2018-07-25T23:20:59.311Z,25.19
2018-07-25T23:23:27.912Z,25.14
2018-07-25T23:25:57.326Z,25.11
2018-07-25T23:28:26.279Z,25.04
2018-07-25T23:30:55.577Z,24.99
2018-07-25T23:33:24.217Z,25.04
2018-07-25T23:35:52.906Z,25.10
2018-07-25T23:38:22.293Z,25.09
2018-07-25T23:40:50.898Z,25.03
2018-07-25T23:43:19.542Z,24.93
2018-07-25T23:45:48.911Z,24.83
2018-07-25T23:48:17.657Z,24.87
2018-07-25T23:50:46.658Z,24.88
2018-07-25T23:53:16.147Z,24.92
2018-07-25T23:55:44.843Z,24.91
2018-07-25T23:58:13.443Z,24.79
